»·PEaware :: AAL394 KTUL-KDFW

AAL394 :: KTUL-KDFW

FLIGHT INFORMATION

Flight Status: Arrived
Operator:
American Airlines
More flights by this operator :: More flights under this callsign
Pilot: John H. (7647)
Aircraft: BOEING 737-800
(B738)
More flights by this aircraft type
Origin: KTUL Tulsa Intl
United States
Destination: KDFW Dallas-Ft Worth Intl
United States
More flights between these airports :: More routes between these airports
Route: PEJAY AXXEE BRDJE3
File this flight plan on PilotEdge
Remarks: PBN / A1B1C1D1S1S2 DOF / 181005 REG / N806SB EET / KZFW0003 OPR / AAL PER / C RMK / TCAS SIMBRIEF
Altitude:
(Current/Filed)
22,000ft
Speed:
(Current/Filed)
438kts
Departed: 05-Oct-18 07:41 AM
Arrived: 05-Oct-18 08:39 AM
Distance/Time
Traveled:
1120nm/0:58
Distance/Time
To Go:
Arrived

Flight Plot

Page will automatically refresh every two minutes.

Flight plan parsing failed; only flown route is shown


Map Options




Map Legend


Flown Route
Filed Route
Departure Airport
Arrival Airport
Navaid (VOR, NDB)
Fix

Horizontal Profiles

Position Reports

Time Latitude Longitude Heading Altitude Ground
Speed
05-Oct-18 07:34 36.189672 -95.885689 3 652ft 0kts
05-Oct-18 07:35 36.190395 -95.885570 30 652ft 5kts
05-Oct-18 07:36 36.192476 -95.885621 305 650ft 13kts
05-Oct-18 07:37 36.194560 -95.886884 260 650ft 14kts
05-Oct-18 07:38 36.198094 -95.885845 19 646ft 20kts
05-Oct-18 07:39 36.203513 -95.883930 2 640ft 29kts
05-Oct-18 07:40 36.212499 -95.882728 88 622ft 19kts
05-Oct-18 07:41 36.212499 -95.882163 88 622ft 0kts
05-Oct-18 07:42 36.210659 -95.881488 183 626ft 36kts
05-Oct-18 07:43 36.176713 -95.882602 182 1226ft 168kts
05-Oct-18 07:44 36.137838 -95.883987 180 2328ft 168kts
05-Oct-18 07:45 36.094597 -95.844213 158 4024ft 178kts
05-Oct-18 07:46 36.044349 -95.820847 160 5003ft 227kts
05-Oct-18 07:47 35.988592 -95.795767 161 6347ft 269kts
05-Oct-18 07:48 35.918178 -95.764286 161 8964ft 273kts
05-Oct-18 07:49 35.847112 -95.732709 161 10669ft 304kts
05-Oct-18 07:50 35.766794 -95.697127 162 12848ft 315kts
05-Oct-18 07:51 35.684710 -95.660848 162 14907ft 325kts
05-Oct-18 07:52 35.596979 -95.655074 189 16820ft 329kts
05-Oct-18 07:53 35.506552 -95.671622 189 18600ft 339kts
05-Oct-18 07:54 35.412955 -95.688610 189 20264ft 348kts
05-Oct-18 07:55 35.316591 -95.705930 189 21804ft 357kts
05-Oct-18 07:56 35.215719 -95.723972 189 22082ft 383kts
05-Oct-18 07:57 35.108088 -95.743178 189 22074ft 399kts
05-Oct-18 07:58 35.002355 -95.761938 189 22074ft 399kts
05-Oct-18 07:59 34.894740 -95.780962 189 22072ft 399kts
05-Oct-18 08:00 34.788926 -95.799625 189 22076ft 398kts
05-Oct-18 08:01 34.710083 -95.813495 189 22077ft 398kts
05-Oct-18 08:02 34.710083 -95.813495 189 22077ft 398kts
05-Oct-18 08:03 34.710083 -95.813495 189 22077ft 398kts
05-Oct-18 08:04 34.710083 -95.813495 189 22077ft 398kts
05-Oct-18 08:05 34.710083 -95.813495 189 22077ft 398kts
05-Oct-18 08:06 34.710083 -95.813495 189 22077ft 398kts
05-Oct-18 08:07 34.710083 -95.813495 189 22077ft 398kts
05-Oct-18 08:08 34.710083 -95.813495 189 22077ft 398kts
05-Oct-18 08:09 34.710083 -95.813495 189 22077ft 398kts
05-Oct-18 08:10 34.710083 -95.813495 189 22077ft 398kts
05-Oct-18 08:11 34.710083 -95.813495 189 22077ft 398kts
05-Oct-18 08:12 34.710083 -95.813495 189 22077ft 398kts
05-Oct-18 08:13 34.710083 -95.813495 189 22077ft 398kts
05-Oct-18 08:14 34.685490 -95.817805 189 22077ft 399kts
05-Oct-18 08:15 34.577455 -95.836757 189 22073ft 398kts
05-Oct-18 08:16 34.474815 -95.854729 189 22075ft 398kts
05-Oct-18 08:17 34.375491 -95.872067 189 22075ft 398kts
05-Oct-18 08:18 34.269590 -95.902145 201 22073ft 396kts
05-Oct-18 08:19 34.168697 -95.947233 201 22077ft 395kts
05-Oct-18 08:20 34.067478 -95.991631 201 22069ft 394kts
05-Oct-18 08:21 33.965438 -96.036082 201 22072ft 395kts
05-Oct-18 08:22 33.874497 -96.075566 201 22077ft 395kts
05-Oct-18 08:23 33.777040 -96.117450 200 22073ft 394kts
05-Oct-18 08:24 33.676606 -96.160101 200 22075ft 385kts
05-Oct-18 08:25 33.576340 -96.202580 201 22074ft 385kts
05-Oct-18 08:26 33.476839 -96.244620 200 20775ft 376kts
05-Oct-18 08:27 33.400829 -96.319021 228 19307ft 356kts
05-Oct-18 08:28 33.339241 -96.404216 228 18219ft 341kts
05-Oct-18 08:29 33.278330 -96.489310 228 17070ft 337kts
05-Oct-18 08:30 33.216267 -96.572183 226 15277ft 332kts
05-Oct-18 08:31 33.157361 -96.650877 226 13533ft 310kts
05-Oct-18 08:32 33.104856 -96.722830 226 11945ft 297kts
05-Oct-18 08:33 33.066372 -96.805866 259 9198ft 326kts
05-Oct-18 08:34 33.057345 -96.916238 280 5459ft 354kts
05-Oct-18 08:35 33.122544 -96.979613 347 4648ft 292kts
05-Oct-18 08:36 33.136133 -97.044537 210 4866ft 252kts
05-Oct-18 08:37 33.069900 -97.038989 163 4066ft 242kts
05-Oct-18 08:38 33.009212 -97.026665 180 2454ft 216kts
05-Oct-18 08:39 32.954210 -97.029784 179 1346ft 175kts
05-Oct-18 08:40 32.910035 -97.029932 179 572ft 146kts
05-Oct-18 08:41 32.894924 -97.031287 209 574ft 0kts
05-Oct-18 08:42 32.893325 -97.031969 181 572ft 17kts
05-Oct-18 08:43 32.886761 -97.031950 179 572ft 19kts
05-Oct-18 08:44 32.885971 -97.040612 272 567ft 42kts
05-Oct-18 08:45 32.888805 -97.047684 0 583ft 30kts
05-Oct-18 08:46 32.898739 -97.047658 0 604ft 38kts
05-Oct-18 08:47 32.899978 -97.045688 150 603ft 0kts
05-Oct-18 08:48 32.899978 -97.045688 150 603ft 0kts
05-Oct-18 08:49 32.899978 -97.045688 150 603ft 0kts
05-Oct-18 08:50 32.899978 -97.045688 150 603ft 0kts
05-Oct-18 08:51 32.899978 -97.045688 150 603ft 0kts
05-Oct-18 08:52 33.403292 -118.415955 45 1568ft 0kts
05-Oct-18 08:53 33.403292 -118.415954 45 1568ft 0kts
05-Oct-18 08:54 33.403292 -118.415954 45 1566ft 0kts
05-Oct-18 08:55 33.403292 -118.415954 45 1566ft 0kts
05-Oct-18 08:56 33.403292 -118.415954 45 1566ft 0kts

Navigation Log

Ident Type
Flight plan parsing failed, navigation log unavailable